Time,TemperatureF,DewpointF,PressureIn,WindDirection,WindDirectionDegrees,WindSpeedMPH,WindSpeedGustMPH,Humidity,HourlyPrecipIn,Conditions,Clouds,dailyrainin,SoftwareType,DateUTC
2013-01-11 00:04:00,29.2,23.0,30.50,ESE,104,3.0,4.0,77,0.00,,,0.00,weatherlink.com 1.10,2013-01-11 05:04:00,
2013-01-11 00:19:00,30.0,23.0,30.49,ESE,105,1.0,2.0,76,0.00,,,0.00,weatherlink.com 1.10,2013-01-11 05:19:00,
2013-01-11 00:34:00,30.0,23.0,30.48,ESE,104,0.0,2.0,75,0.00,,,0.00,weatherlink.com 1.10,2013-01-11 05:34:00,
2013-01-11 00:49:00,29.6,23.0,30.50,ESE,105,0.0,1.0,77,0.00,,,0.00,weatherlink.com 1.10,2013-01-11 05:49:00,
2013-01-11 01:04:00,29.0,23.0,30.49,ESE,105,1.0,1.0,78,0.00,,,0.00,weatherlink.com 1.10,2013-01-11 06:04:00,
2013-01-11 01:19:00,29.4,23.0,30.49,ESE,104,0.0,1.0,77,0.00,,,0.00,weatherlink.com 1.10,2013-01-11 06:19:00,
2013-01-11 01:34:00,28.5,23.0,30.50,ESE,105,1.0,1.0,79,0.00,,,0.00,weatherlink.com 1.10,2013-01-11 06:34:00,
2013-01-11 01:49:00,27.8,22.0,30.50,ESE,105,0.0,1.0,80,0.00,,,0.00,weatherlink.com 1.10,2013-01-11 06:49:00,
2013-01-11 02:04:00,27.9,23.0,30.48,ESE,105,1.0,2.0,81,0.00,,,0.00,weatherlink.com 1.10,2013-01-11 07:04:00,
2013-01-11 02:19:00,28.9,23.0,30.48,ESE,104,0.0,3.0,79,0.00,,,0.00,weatherlink.com 1.10,2013-01-11 07:19:00,
2013-01-11 02:34:00,28.9,23.0,30.48,ESE,104,0.0,3.0,78,0.00,,,0.00,weatherlink.com 1.10,2013-01-11 07:34:00,
2013-01-11 02:49:00,27.6,22.0,30.48,ESE,104,0.0,1.0,80,0.00,,,0.00,weatherlink.com 1.10,2013-01-11 07:49:00,
2013-01-11 03:04:00,26.8,22.0,30.46,ESE,104,0.0,1.0,82,0.00,,,0.00,weatherlink.com 1.10,2013-01-11 08:04:00,
2013-01-11 03:19:00,26.2,22.0,30.46,ESE,105,0.0,1.0,83,0.00,,,0.00,weatherlink.com 1.10,2013-01-11 08:19:00,
2013-01-11 03:34:00,25.6,21.0,30.45,ESE,104,0.0,0.0,84,0.00,,,0.00,weatherlink.com 1.10,2013-01-11 08:34:00,
2013-01-11 03:49:00,25.3,21.0,30.45,ESE,104,0.0,0.0,85,0.00,,,0.00,weatherlink.com 1.10,2013-01-11 08:49:00,
2013-01-11 04:04:00,25.1,21.0,30.45,ESE,104,0.0,0.0,85,0.00,,,0.00,weatherlink.com 1.10,2013-01-11 09:04:00,
2013-01-11 04:19:00,25.1,21.0,30.45,ESE,104,0.0,0.0,85,0.00,,,0.00,weatherlink.com 1.10,2013-01-11 09:19:00,
2013-01-11 04:34:00,24.9,21.0,30.45,ESE,105,0.0,0.0,86,0.00,,,0.00,weatherlink.com 1.10,2013-01-11 09:34:00,
2013-01-11 04:49:00,24.7,21.0,30.45,ESE,105,0.0,0.0,86,0.00,,,0.00,weatherlink.com 1.10,2013-01-11 09:49:00,
2013-01-11 05:04:00,24.6,21.0,30.45,ESE,104,0.0,0.0,87,0.00,,,0.00,weatherlink.com 1.10,2013-01-11 10:04:00,
2013-01-11 05:19:00,24.7,21.0,30.46,ESE,105,0.0,0.0,87,0.00,,,0.00,weatherlink.com 1.10,2013-01-11 10:19:00,
2013-01-11 05:34:00,24.6,21.0,30.46,ESE,105,0.0,0.0,87,0.00,,,0.00,weatherlink.com 1.10,2013-01-11 10:34:00,
2013-01-11 05:49:00,24.5,22.0,30.47,ESE,105,0.0,0.0,88,0.00,,,0.00,weatherlink.com 1.10,2013-01-11 10:49:00,
2013-01-11 06:04:00,24.6,22.0,30.47,ESE,104,0.0,0.0,88,0.00,,,0.00,weatherlink.com 1.10,2013-01-11 11:04:00,
2013-01-11 06:19:00,24.2,21.0,30.47,ESE,105,0.0,0.0,88,0.00,,,0.00,weatherlink.com 1.10,2013-01-11 11:19:00,
2013-01-11 06:34:00,24.3,21.0,30.47,ESE,104,0.0,0.0,88,0.00,,,0.00,weatherlink.com 1.10,2013-01-11 11:34:00,
2013-01-11 06:49:00,24.0,21.0,30.47,ESE,105,0.0,0.0,88,0.00,,,0.00,weatherlink.com 1.10,2013-01-11 11:49:00,
2013-01-11 07:04:00,23.8,21.0,30.48,ESE,105,0.0,0.0,89,0.00,,,0.00,weatherlink.com 1.10,2013-01-11 12:04:00,
2013-01-11 07:19:00,23.6,21.0,30.48,ESE,105,0.0,0.0,89,0.00,,,0.00,weatherlink.com 1.10,2013-01-11 12:19:00,
2013-01-11 07:34:00,23.5,21.0,30.48,ESE,104,0.0,0.0,89,0.00,,,0.00,weatherlink.com 1.10,2013-01-11 12:34:00,
2013-01-11 07:49:00,23.6,21.0,30.49,ESE,105,0.0,0.0,90,0.00,,,0.00,weatherlink.com 1.10,2013-01-11 12:49:00,
2013-01-11 08:04:00,23.9,21.0,30.48,ESE,104,0.0,0.0,90,0.00,,,0.00,weatherlink.com 1.10,2013-01-11 13:04:00,
2013-01-11 08:19:00,24.5,22.0,30.49,ESE,104,0.0,0.0,89,0.00,,,0.00,weatherlink.com 1.10,2013-01-11 13:19:00,
2013-01-11 08:34:00,25.4,22.0,30.48,ESE,104,0.0,1.0,88,0.00,,,0.00,weatherlink.com 1.10,2013-01-11 13:34:00,
2013-01-11 08:49:00,26.4,23.0,30.48,ESE,104,0.0,0.0,87,0.00,,,0.00,weatherlink.com 1.10,2013-01-11 13:49:00,
2013-01-11 09:04:00,27.5,24.0,30.47,ESE,104,0.0,0.0,85,0.00,,,0.00,weatherlink.com 1.10,2013-01-11 14:04:00,
2013-01-11 09:19:00,29.2,24.0,30.47,ESE,105,0.0,1.0,82,0.00,,,0.00,weatherlink.com 1.10,2013-01-11 14:19:00,
2013-01-11 09:34:00,30.3,25.0,30.47,ESE,104,1.0,1.0,79,0.00,,,0.00,weatherlink.com 1.10,2013-01-11 14:34:00,
2013-01-11 09:49:00,31.7,25.0,30.47,ESE,104,0.0,0.0,75,0.00,,,0.00,weatherlink.com 1.10,2013-01-11 14:49:00,
2013-01-11 10:04:00,33.2,25.0,30.46,ESE,104,0.0,2.0,71,0.00,,,0.00,weatherlink.com 1.10,2013-01-11 15:04:00,
2013-01-11 10:19:00,33.7,25.0,30.46,ESE,104,1.0,2.0,69,0.00,,,0.00,weatherlink.com 1.10,2013-01-11 15:19:00,
2013-01-11 10:34:00,34.2,25.0,30.45,ESE,105,2.0,2.0,69,0.00,,,0.00,weatherlink.com 1.10,2013-01-11 15:34:00,
2013-01-11 10:49:00,34.3,25.0,30.44,ESE,105,2.0,4.0,68,0.00,,,0.00,weatherlink.com 1.10,2013-01-11 15:49:00,
2013-01-11 11:04:00,34.5,25.0,30.43,ESE,105,0.0,2.0,67,0.00,,,0.00,weatherlink.com 1.10,2013-01-11 16:04:00,
2013-01-11 11:19:00,34.8,25.0,30.42,ESE,104,1.0,2.0,67,0.00,,,0.00,weatherlink.com 1.10,2013-01-11 16:19:00,
2013-01-11 11:34:00,34.8,25.0,30.40,ESE,105,1.0,3.0,68,0.00,,,0.00,weatherlink.com 1.10,2013-01-11 16:34:00,
2013-01-11 11:49:00,34.5,25.0,30.39,ESE,104,2.0,3.0,68,0.00,,,0.00,weatherlink.com 1.10,2013-01-11 16:49:00,
2013-01-11 12:04:00,34.6,24.0,30.38,ESE,105,1.0,6.0,65,0.00,,,0.00,weatherlink.com 1.10,2013-01-11 17:04:00,
2013-01-11 12:19:00,35.1,24.0,30.39,ESE,104,1.0,2.0,64,0.00,,,0.00,weatherlink.com 1.10,2013-01-11 17:19:00,
2013-01-11 12:34:00,35.2,23.0,30.38,ESE,104,1.0,2.0,62,0.00,,,0.00,weatherlink.com 1.10,2013-01-11 17:34:00,
2013-01-11 12:49:00,35.3,24.0,30.39,ESE,104,0.0,2.0,63,0.00,,,0.00,weatherlink.com 1.10,2013-01-11 17:49:00,
2013-01-11 13:04:00,35.5,25.0,30.38,ESE,105,1.0,2.0,65,0.00,,,0.00,weatherlink.com 1.10,2013-01-11 18:04:00,
2013-01-11 13:19:00,35.6,26.0,30.37,ESE,104,0.0,2.0,67,0.00,,,0.00,weatherlink.com 1.10,2013-01-11 18:19:00,
2013-01-11 13:34:00,35.7,25.0,30.37,ESE,105,0.0,1.0,66,0.00,,,0.00,weatherlink.com 1.10,2013-01-11 18:34:00,
2013-01-11 13:49:00,35.4,25.0,30.37,ESE,105,0.0,3.0,67,0.00,,,0.00,weatherlink.com 1.10,2013-01-11 18:49:00,
2013-01-11 14:04:00,35.4,26.0,30.35,ESE,104,1.0,3.0,68,0.00,,,0.00,weatherlink.com 1.10,2013-01-11 19:04:00,
2013-01-11 14:19:00,35.3,26.0,30.35,ESE,104,1.0,2.0,69,0.00,,,0.00,weatherlink.com 1.10,2013-01-11 19:19:00,
2013-01-11 14:34:00,34.9,26.0,30.35,ESE,105,1.0,1.0,70,0.00,,,0.00,weatherlink.com 1.10,2013-01-11 19:34:00,
2013-01-11 15:04:00,34.5,26.0,30.34,ESE,105,0.0,2.0,72,0.00,,,0.00,weatherlink.com 1.10,2013-01-11 20:04:00,
2013-01-11 15:19:00,34.4,27.0,30.33,ESE,105,0.0,3.0,73,0.00,,,0.00,weatherlink.com 1.10,2013-01-11 20:19:00,
2013-01-11 15:34:00,34.3,27.0,30.32,ESE,104,0.0,2.0,74,0.00,,,0.00,weatherlink.com 1.10,2013-01-11 20:34:00,
2013-01-11 15:49:00,34.1,27.0,30.31,ESE,105,1.0,2.0,75,0.00,,,0.00,weatherlink.com 1.10,2013-01-11 20:49:00,
2013-01-11 16:05:00,33.9,27.0,30.31,ESE,105,0.0,1.0,76,0.00,,,0.00,weatherlink.com 1.10,2013-01-11 21:05:00,
2013-01-11 16:19:00,33.8,27.0,30.30,ESE,105,1.0,1.0,77,0.00,,,0.00,weatherlink.com 1.10,2013-01-11 21:19:00,
2013-01-11 16:35:00,33.7,28.0,30.30,ESE,105,0.0,1.0,78,0.00,,,0.00,weatherlink.com 1.10,2013-01-11 21:35:00,
2013-01-11 16:50:00,33.5,28.0,30.30,ESE,104,0.0,1.0,79,0.00,,,0.00,weatherlink.com 1.10,2013-01-11 21:50:00,
2013-01-11 17:05:00,33.5,28.0,30.31,ESE,105,0.0,1.0,80,0.00,,,0.00,weatherlink.com 1.10,2013-01-11 22:05:00,
2013-01-11 17:20:00,33.4,29.0,30.30,ESE,104,2.0,2.0,82,0.00,,,0.00,weatherlink.com 1.10,2013-01-11 22:20:00,
2013-01-11 17:35:00,33.3,29.0,30.29,ESE,105,1.0,2.0,83,0.00,,,0.00,weatherlink.com 1.10,2013-01-11 22:35:00,
2013-01-11 17:50:00,33.3,29.0,30.29,ESE,105,0.0,1.0,84,0.00,,,0.00,weatherlink.com 1.10,2013-01-11 22:50:00,
2013-01-11 18:20:00,33.0,30.0,30.27,ESE,105,0.0,1.0,87,0.01,,,0.01,weatherlink.com 1.10,2013-01-11 23:20:00,
2013-01-11 18:35:00,32.6,30.0,30.27,ESE,105,0.0,1.0,88,0.01,,,0.01,weatherlink.com 1.10,2013-01-11 23:35:00,
2013-01-11 18:50:00,32.5,30.0,30.27,ESE,104,0.0,1.0,89,0.01,,,0.01,weatherlink.com 1.10,2013-01-11 23:50:00,
2013-01-11 19:05:00,32.4,30.0,30.26,ESE,104,0.0,1.0,90,0.01,,,0.00,weatherlink.com 1.10,2013-01-12 00:05:00,
2013-01-11 19:20:00,32.2,30.0,30.26,ESE,104,0.0,1.0,92,0.01,,,0.01,weatherlink.com 1.10,2013-01-12 00:20:00,
2013-01-11 19:35:00,32.0,30.0,30.25,ESE,105,0.0,0.0,92,0.02,,,0.02,weatherlink.com 1.10,2013-01-12 00:35:00,
2013-01-11 19:50:00,31.8,30.0,30.25,ESE,105,0.0,1.0,94,0.02,,,0.02,weatherlink.com 1.10,2013-01-12 00:50:00,
2013-01-11 20:05:00,31.8,30.0,30.25,ESE,104,0.0,1.0,94,0.02,,,0.02,weatherlink.com 1.10,2013-01-12 01:05:00,
2013-01-11 20:20:00,31.7,31.0,30.25,ESE,104,0.0,1.0,95,0.03,,,0.04,weatherlink.com 1.10,2013-01-12 01:20:00,
2013-01-11 20:35:00,31.8,31.0,30.24,ESE,105,1.0,2.0,95,0.02,,,0.04,weatherlink.com 1.10,2013-01-12 01:35:00,
2013-01-11 20:50:00,31.8,31.0,30.23,ESE,105,1.0,1.0,96,0.02,,,0.04,weatherlink.com 1.10,2013-01-12 01:50:00,
2013-01-11 21:05:00,32.0,31.0,30.23,ESE,104,1.0,1.0,96,0.02,,,0.04,weatherlink.com 1.10,2013-01-12 02:05:00,
2013-01-11 21:20:00,32.1,31.0,30.23,ESE,104,0.0,1.0,96,0.00,,,0.04,weatherlink.com 1.10,2013-01-12 02:20:00,
2013-01-11 21:38:00,32.2,32.0,30.23,ESE,105,0.0,1.0,97,0.01,,,0.05,weatherlink.com 1.10,2013-01-12 02:38:00,
2013-01-11 21:50:00,32.3,32.0,30.23,ESE,105,1.0,1.0,97,0.02,,,0.06,weatherlink.com 1.10,2013-01-12 02:50:00,
2013-01-11 22:05:00,32.5,32.0,30.22,ESE,104,0.0,1.0,97,0.02,,,0.06,weatherlink.com 1.10,2013-01-12 03:05:00,
2013-01-11 22:20:00,32.6,32.0,30.22,ESE,105,0.0,2.0,97,0.03,,,0.07,weatherlink.com 1.10,2013-01-12 03:20:00,
2013-01-11 22:35:00,32.9,32.0,30.24,ESE,104,0.0,2.0,97,0.02,,,0.07,weatherlink.com 1.10,2013-01-12 03:35:00,
2013-01-11 22:50:00,32.9,32.0,30.23,ESE,105,0.0,1.0,97,0.03,,,0.09,weatherlink.com 1.10,2013-01-12 03:50:00,
2013-01-11 23:05:00,32.9,32.0,30.23,ESE,105,0.0,1.0,97,0.03,,,0.09,weatherlink.com 1.10,2013-01-12 04:05:00,
2013-01-11 23:20:00,32.9,32.0,30.22,ESE,105,0.0,1.0,98,0.02,,,0.09,weatherlink.com 1.10,2013-01-12 04:20:00,
2013-01-11 23:35:00,32.9,32.0,30.22,ESE,105,0.0,1.0,98,0.02,,,0.09,weatherlink.com 1.10,2013-01-12 04:35:00,
2013-01-11 23:50:00,33.0,33.0,30.21,ESE,104,0.0,1.0,98,0.00,,,0.09,weatherlink.com 1.10,2013-01-12 04:50:00,